Flight Track Log - Related Links

Times and Time Zones

All times are in EDT time to prevent confusion due to time zone crossing. See the CPZ5805 flight status page for this flight to view local times or setup timezone preferences in your user account.

Time Position Orientation Groundspeed Altitude Reporting Facility
EDT Latitude Longitude Course Direction KTS MPH feet Rate Location/Type
Sat 08:16:34 AM 44.8667 -93.1667 70° East 152 175 2,300  Level Minneapolis TRACON
Sat 08:17:10 AM 44.8681 -93.1356 86° East 170 196 2,900 1,979 Climbing Minneapolis Center
Sat 08:18:11 AM 44.8717 -93.0478 87° East 253 291 5,500 2,705 Climbing Minneapolis Center
Sat 08:19:00 AM 45.0513 -92.5792 68° East  Level FlightAware Approximate
Sat 08:19:12 AM 44.9208 -93.0011 34° Northeast 266 306 8,400  Level Minneapolis Center
Sat 08:20:00 AM 45.0954 -92.4183 70° East  Level FlightAware Approximate
Sat 08:20:13 AM 45.0031 -92.9247 33° Northeast 304 350 11,100  Level Minneapolis Center
Sat 08:21:00 AM 45.1323 -92.2545 70° East  Level FlightAware Approximate
Sat 08:21:14 AM 45.0600 -92.8078 55° Northeast 360 414 13,500  Level Minneapolis Center
Sat 08:22:14 AM 45.1178 -92.6861 56° Northeast 373 429 16,000 2,380 Climbing Minneapolis Center
Sat 08:23:15 AM 45.1911 -92.5303 56° Northeast 395 455 18,300 2,311 Climbing Minneapolis Center
Sat 08:24:16 AM 45.2531 -92.3961 57° Northeast 407 468 20,700 2,066 Climbing Minneapolis Center
Sat 08:25:17 AM 45.3092 -92.2494 61° Northeast 423 487 22,500 1,770 Climbing Minneapolis Center
Sat 08:26:18 AM 45.3314 -92.0756 80° East 441 507 24,300 1,623 Climbing Minneapolis Center
Sat 08:27:19 AM 45.3561 -91.9033 78° East 445 512 25,800 1,279 Climbing Minneapolis Center
Sat 08:28:20 AM 45.3806 -91.7250 79° East 451 519 26,900 1,220 Climbing Minneapolis Center
Sat 08:29:22 AM 45.4047 -91.5419 79° East 461 531 28,300 1,328 Climbing Minneapolis Center
Sat 08:30:22 AM 45.4242 -91.3956 79° East 467 537 29,600 1,574 Climbing Minneapolis Center
Sat 08:31:24 AM 45.4511 -91.1814 80° East 464 534 31,500 1,610 Climbing Minneapolis Center
Sat 08:32:25 AM 45.4708 -91.0067 81° East 457 526 32,900 738 Climbing Minneapolis Center
Sat 08:33:26 AM 45.4317 -90.8281 107° East 468 539 33,000 49 Climbing Minneapolis Center
Sat 08:34:27 AM 45.3842 -90.6169 108° East 469 540 33,000  Level Minneapolis Center
Sat 08:35:28 AM 45.3442 -90.4403 108° East 471 542 33,000  Level Minneapolis Center
Sat 08:36:29 AM 45.3033 -90.2653 108° East 469 540 33,000  Level Minneapolis Center
Sat 08:37:30 AM 45.2628 -90.0883 108° East 472 543 33,000  Level Minneapolis Center
Sat 08:38:31 AM 45.2217 -89.9117 108° East 474 545 33,000  Level Minneapolis Center
Sat 08:39:33 AM 45.1806 -89.7350 108° East 474 545 33,000  Level Minneapolis Center
Sat 08:40:34 AM 45.1383 -89.5594 109° East 474 545 33,000  Level Minneapolis Center
Sat 08:41:35 AM 45.0967 -89.3828 108° East 475 547 33,000  Level Minneapolis Center
Sat 08:42:36 AM 45.0483 -89.1831 109° East 474 545 33,000  Level Minneapolis Center
Sat 08:43:37 AM 45.0067 -89.0067 108° East 472 543 33,000  Level Minneapolis Center
Sat 08:44:38 AM 44.9633 -88.8308 109° East 472 543 33,000  Level Minneapolis Center
Sat 08:45:39 AM 44.9203 -88.6542 109° East 473 544 33,000  Level Minneapolis Center
Sat 08:46:40 AM 44.8767 -88.4794 109° East 472 543 33,000  Level Minneapolis Center
Sat 08:47:42 AM 44.8331 -88.3036 109° East 473 544 33,000  Level Minneapolis Center
Sat 08:48:43 AM 44.7833 -88.1078 110° East 475 547 33,000  Level Minneapolis Center
Sat 08:49:56 AM 44.7397 -87.9342 109° East 472 543 33,000  Level Minneapolis Center
Sat 08:50:57 AM 44.6850 -87.7258 110° East 475 547 33,000  Level Minneapolis Center
Sat 08:51:58 AM 44.6400 -87.5528 110° East 473 544 33,000  Level Minneapolis Center
Sat 08:52:59 AM 44.5956 -87.3778 110° East 475 547 33,000  Level Minneapolis Center
Sat 08:54:00 AM 44.5492 -87.2031 110° East 480 552 33,000  Level Minneapolis Center
Sat 08:55:13 AM 44.5036 -87.0297 110° East 479 551 33,000  Level Minneapolis Center
Sat 08:56:14 AM 44.4478 -86.8214 111° Southeast 479 551 33,000  Level Minneapolis Center
Sat 08:57:15 AM 44.4014 -86.6475 110° East 479 551 33,000  Level Minneapolis Center
Sat 08:58:17 AM 44.3550 -86.4731 110° East 482 555 33,000  Level Minneapolis Center
Sat 08:59:18 AM 44.2986 -86.2661 111° Southeast 481 554 33,000  Level Minneapolis Center
Sat 09:00:18 AM 44.2617 -86.1278 110° East 481 554 33,000  Level Minneapolis Center
Sat 09:01:20 AM 44.2031 -85.9208 111° Southeast 482 555 33,000  Level Minneapolis Center
Sat 09:02:33 AM 44.1558 -85.7486 111° Southeast 480 552 33,000  Level Minneapolis Center
Sat 09:03:34 AM 44.0983 -85.5431 111° Southeast 480 552 33,000  Level Minneapolis Center
Sat 09:04:35 AM 44.0508 -85.3725 111° Southeast 480 552 33,000  Level Minneapolis Center
Sat 09:05:36 AM 44.0003 -85.1969 112° Southeast 483 556 33,000  Level Minneapolis Center
Sat 09:06:37 AM 43.9503 -85.0219 112° Southeast 486 559 33,000  Level Minneapolis Center
Sat 09:07:38 AM 43.8994 -84.8500 112° Southeast 485 558 33,000  Level Minneapolis Center
Sat 09:08:39 AM 43.8519 -84.6800 111° Southeast 480 552 33,000  Level Minneapolis Center
Sat 09:09:40 AM 43.7919 -84.4747 112° Southeast 479 551 33,000  Level Minneapolis Center
Sat 09:10:41 AM 43.7408 -84.3014 112° Southeast 483 556 33,000  Level Minneapolis Center
Sat 09:11:42 AM 43.6906 -84.1306 112° Southeast 482 555 33,000  Level Minneapolis Center
Sat 09:12:43 AM 43.6383 -83.9600 113° Southeast 482 555 33,000  Level Minneapolis Center
Sat 09:13:09 AM 43.6172 -83.8981 115° Southeast 475 547 33,000  Level Cleveland Center
Sat 09:14:09 AM 43.5828 -83.7183 105° East 475 547 33,000  Level Cleveland Center
Sat 09:15:09 AM 43.5625 -83.5369 99° East 475 547 33,000  Level Cleveland Center
Sat 09:16:09 AM 43.5419 -83.3583 99° East 475 547 33,000  Level Cleveland Center
Sat 09:17:09 AM 43.5211 -83.1742 99° East 475 547 33,000  Level Cleveland Center
Sat 09:18:09 AM 43.4983 -82.9756 99° East 475 547 33,000  Level Cleveland Center
Sat 09:19:09 AM 43.4747 -82.8003 100° East 475 547 33,000  Level Cleveland Center
Sat 09:20:09 AM 43.4528 -82.6278 100° East 475 547 33,000  Level Cleveland Center
Sat 09:20:45 AM 43.4333 -82.5000 102° East 480 552 33,000  Level Toronto Center
Sat 09:21:09 AM 43.4286 -82.4556 98° East 475 547 33,000  Level Cleveland Center
Sat 09:22:09 AM 43.4194 -82.3867 100° East 475 547 33,000  Level Cleveland Center
Sat 09:23:09 AM 43.4194 -82.3867 29° Northeast 475 547 33,000  Level Cleveland Center
Sat 09:23:45 AM 43.3667 -81.9500 99° East 480 552 33,000  Level Toronto Center
Sat 09:24:45 AM 43.3500 -81.7833 98° East 480 552 33,000  Level Toronto Center
Sat 09:25:45 AM 43.3333 -81.6000 97° East 480 552 33,000  Level Toronto Center
Sat 09:26:45 AM 43.3000 -81.4167 104° East 480 552 33,000  Level Toronto Center
Sat 09:27:45 AM 43.2833 -81.2333 97° East 480 552 33,000  Level Toronto Center
Sat 09:28:45 AM 43.2500 -81.0500 104° East 480 552 33,000  Level Toronto Center
Sat 09:29:45 AM 43.2333 -80.9000 99° East 480 552 33,000  Level Toronto Center
Sat 09:30:45 AM 43.2167 -80.6833 96° East 480 552 33,000  Level Toronto Center
Sat 09:31:45 AM 43.2000 -80.5167 98° East 480 552 33,000  Level Toronto Center
Sat 09:32:45 AM 43.1667 -80.3333 104° East 480 552 33,000  Level Toronto Center
Sat 09:33:45 AM 43.1500 -80.1667 98° East 480 552 33,000  Level Toronto Center
Sat 09:34:45 AM 43.1167 -79.9833 104° East 480 552 33,000  Level Toronto Center
Sat 09:35:45 AM 43.0833 -79.8000 104° East 480 552 33,000  Level Toronto Center
Sat 09:36:45 AM 43.0667 -79.6333 98° East 480 552 33,000  Level Toronto Center
Sat 09:37:45 AM 43.0333 -79.4333 103° East 480 552 33,000  Level Toronto Center
Sat 09:38:45 AM 43.0167 -79.2667 98° East 480 552 33,000  Level Toronto Center
Sat 09:39:45 AM 42.9833 -79.0833 104° East 480 552 33,000  Level Toronto Center
Sat 09:40:45 AM 42.9667 -78.9000 97° East 490 564 33,000  Level Toronto Center
Sat 09:41:45 AM 42.9333 -78.7167 104° East 490 564 33,000  Level Toronto Center
Sat 09:42:33 AM 42.9292 -78.6153 93° East 486 559 33,000  Level Cleveland Center
Sat 09:43:33 AM 42.9239 -78.4369 92° East 480 552 33,000  Level Cleveland Center
Sat 09:44:33 AM 42.9203 -78.2556 91° East 475 547 33,000  Level Cleveland Center
Sat 09:45:33 AM 42.9186 -78.0769 91° East 475 547 33,000  Level Cleveland Center
Sat 09:46:33 AM 42.9125 -77.8958 93° East 475 547 33,000  Level Cleveland Center
Sat 09:47:33 AM 42.9081 -77.7144 92° East 475 547 33,000  Level Cleveland Center
Sat 09:49:28 AM 42.8986 -77.3586 92° East 481 554 33,000  Level Boston Center
Sat 09:49:45 AM 42.8833 -77.2667 103° East 480 552 33,000  Level Toronto Center
Sat 09:50:45 AM 42.8833 -77.0833 90° East 480 552 33,000  Level Toronto Center
Sat 09:51:45 AM 42.8833 -76.9333 90° East 480 552 33,000  Level Toronto Center
Sat 09:52:28 AM 42.8839 -76.8528 89° East 481 554 33,000  Level Boston Center
Sat 09:53:40 AM 42.8789 -76.6567 92° East 481 554 33,000  Level Boston Center
Sat 09:54:40 AM 42.8658 -76.4375 95° East 481 554 33,000  Level Boston Center
Sat 09:55:40 AM 42.8133 -76.2672 113° Southeast 470 541 33,000 -200 Level Boston Center
Sat 09:56:40 AM 42.7583 -76.1025 114° Southeast 480 552 32,600 -650 Descending Boston Center
Sat 09:57:40 AM 42.7028 -75.9408 115° Southeast 474 545 31,700 -950 Descending Boston Center
Sat 09:58:40 AM 42.6475 -75.7769 115° Southeast 474 545 30,700 -1,100 Descending Boston Center
Sat 09:59:40 AM 42.5917 -75.6075 114° Southeast 474 545 29,500 -1,200 Descending Boston Center
Sat 10:00:40 AM 42.5358 -75.4439 115° Southeast 474 545 28,300 -1,200 Descending Boston Center
Sat 10:01:40 AM 42.4794 -75.2778 115° Southeast 474 545 27,100 -1,200 Descending Boston Center
Sat 10:02:40 AM 42.4669 -75.1056 96° East 461 531 25,900 -1,150 Descending Boston Center
Sat 10:03:40 AM 42.4708 -74.9339 88° East 449 517 24,800 -1,150 Descending Boston Center
Sat 10:04:40 AM 42.4744 -74.7708 88° East 442 509 23,600 -1,300 Descending Boston Center
Sat 10:05:40 AM 42.4778 -74.6078 88° East 437 503 22,200 -1,400 Descending Boston Center
Sat 10:06:40 AM 42.4806 -74.4444 89° East 437 503 20,800 -1,450 Descending Boston Center
Sat 10:07:40 AM 42.4856 -74.2728 88° East 425 489 19,300 -1,400 Descending Boston Center
Sat 10:08:40 AM 42.4756 -74.1206 95° East 411 473 18,000 -900 Descending Boston Center
Sat 10:09:40 AM 42.4525 -73.9878 103° East 404 465 17,500 -850 Descending Boston Center
Sat 10:10:40 AM 42.4189 -73.8267 106° East 399 459 16,300 -1,100 Descending Boston Center
Sat 10:11:40 AM 42.3956 -73.6994 104° East 399 459 15,300 -1,105 Descending Boston Center
Sat 10:11:56 AM 42.3836 -73.6514 109° East 389 448 14,900 -1,200 Descending Boston Center
Sat 10:12:40 AM 42.3636 -73.5500 105° East 389 448 14,100 -1,063 Descending Boston Center
Sat 10:13:15 AM 42.3456 -73.4739 108° East 380 437 13,500 -1,000 Descending Boston Center
Sat 10:13:40 AM 42.3378 -73.4258 102° East 377 434 13,100 -1,082 Descending Boston Center
Sat 10:14:16 AM 42.3178 -73.3386 107° East 377 434 12,400 -1,200 Descending Boston Center
Sat 10:14:40 AM 42.3078 -73.2767 102° East 377 434 11,900 -1,180 Descending Boston Center
Sat 10:15:17 AM 42.2750 -73.2033 121° Southeast 368 423 11,200 -1,000 Descending Boston Center
Sat 10:15:40 AM 42.2458 -73.1861 156° South 339 390 10,900 -764 Descending Boston Center
Sat 10:16:12 AM 42.2000 -73.1658 162° South 308 354 10,500 -1,200 Descending Boston Center
Sat 10:16:40 AM 42.1689 -73.1517 161° South 295 339 9,700 -1,791 Descending Boston Center
Sat 10:17:19 AM 42.1169 -73.1342 166° South 293 337 8,500 -1,860 Descending Boston Center
Sat 10:18:20 AM 42.0400 -73.1053 164° South 285 328 6,600 -1,869 Descending Boston Center
Sat 10:19:21 AM 41.9589 -73.0794 167° South 280 322 4,700 -1,230 Descending Boston Center
Sat 10:20:22 AM 41.9092 -73.0147 136° Southeast 266 306 4,100 -310 Descending Boston Center
Sat 10:21:17 AM 41.8742 -72.9558 129° Southeast 222 255 4,100 -104 Level Boston Center
Sat 10:22:17 AM 41.8389 -72.8914 126° Southeast 210 242 3,900 -545 Descending Boston Center
Sat 10:23:18 AM 41.8350 -72.8272 95° East 210 242 3,000 -984 Descending Boston Center
Sat 10:24:19 AM 41.8725 -72.7775 45° Northeast 195 224 1,900 -1,082 Descending Boston Center

Login

Don't have an account? Register now (free) for customized features, flight alerts, and more!